Aurora, IL

1:29 PM CST on January 26, 2015 (GMT -0600)
Near Pine Knoll/Wolf Run | Change Station
CLOSE
Current Station
Personal Weather Station
Location: Aurora, IL
Elevation: 679 ft
Nearby Weather Stations

Elev 679 ft 41.74 °N, 88.36 °W | Updated 11 minutes ago

Overcast
Overcast
26.8 °F
Feels Like 27 °F
N
1.7
Wind Variable Wind from ESE

Today
High -- | Low -- °F
--% Chance of Precip.
Yesterday
High -- | Low -- °F
Precip. -- in
7:11 AM 5:00 PM
Waxing Crescent, 46% visible
Pressure 29.91 in
Visibility 7.0 miles
Clouds Scattered Clouds 4900 ft
Overcast 6000 ft
Windchill 27 °F
Dew Point 19 °F
Humidity 73%
Rainfall 0.00 in
Snow Depth Not available.
UV 1 out of 12
Pollen .10 out of 12
Air Quality Not available.
Flu Activity Not available.
METAR KARR 261852Z 18006KT 7SM SCT049 OVC060 M03/M08 A2988 RMK AO2 SLP129 T10331083

More Conditions Fewer Conditions

Pressure 29.91 in
Visibility 7.0 miles
Clouds Scattered Clouds 4900 ft
Overcast 6000 ft
Windchill 27 °F
Dew Point 19 °F
Humidity 73%
Rainfall 0.00 in
Snow Depth Not available.
UV 1 out of 12
Pollen .10 out of 12
Air Quality Not available.
Flu Activity Not available.
METAR KARR 261852Z 18006KT 7SM SCT049 OVC060 M03/M08 A2988 RMK AO2 SLP129 T10331083

More Conditions Fewer Conditions

10-Day Weather Forecast

Almanac

Astronomy

Jan. 26, 2015 Rise Set
Actual Time
Civil Twilight
Nautical Twilight
Astronomical Twilight
Moon
Length of Visible Light
Length of Day
Tomorrow will be .
, % of the Moon is Illuminated

Today's Extremes

State Highs State Lows

Community

WunderPhotos

Upload Photos

1,790,337 photos uploaded!

WunderBlogs® & News

Nearby

Air Quality

  Air Quality AQ Index Pollutant
Not available.

Snow Depth

Station Depth Elevation

Earthquake Activity

City Distance Mag. Time & Date
Minimum magnitude displayed is 2.5.

Coastal Water Temperatures

Place Temperature

Nearby Weather Stations